This is the latest recevied weather packets stored in our database for station/object K5KVN. If no packets are shown the sender has not sent any weather packets the latest 10 day(s).
| Time | Temp. | Humidity | Pressure | Rain* | Wind** | Luminosity | Snow |
|---|---|---|---|---|---|---|---|
| 1787434996 | 28.33° C | 66% | 1019.2 hPa | 0 mm | - | - | - |
| 1787434337 | 28.33° C | 65% | 1019.2 hPa | 0 mm | - | - | - |
| 1787433736 | 29.44° C | 63% | 1018.6 hPa | 0 mm | - | - | - |
| 1787433136 | 29.44° C | 62% | 1018.4 hPa | 0 mm | - | - | - |
| 1787432597 | 30° C | 59% | 1018.4 hPa | 0 mm | - | - | - |
| 1787431936 | 31.11° C | 55% | 1018.7 hPa | 0 mm | - | - | - |
| 1787431334 | 31.11° C | 57% | 1018.5 hPa | 0 mm | - | - | - |
| 1787430738 | 31.67° C | 62% | 1018.5 hPa | 0 mm | - | - | - |
| 1787430192 | 32.78° C | 56% | 1017.7 hPa | 0 mm | - | - | - |
| 1787429532 | 33.33° C | 55% | 1017.5 hPa | 0 mm | - | - | - |
| 1787428992 | 32.78° C | 56% | 1017.4 hPa | 0 mm | - | - | - |
| 1787428334 | 32.78° C | 56% | 1017.4 hPa | 0 mm | - | - | - |
| 1787427734 | 32.78° C | 54% | 1018 hPa | 0 mm | - | - | - |
| 1787427194 | 33.33° C | 53% | 1018.4 hPa | 0 mm | - | - | - |
| 1787426530 | 33.89° C | 50% | 1018.6 hPa | 0 mm | - | - | - |
| 1787425931 | 34.44° C | 50% | 1018.7 hPa | 0 mm | - | - | - |
| 1787425331 | 34.44° C | 52% | 1018.7 hPa | 0 mm | - | - | - |
| 1787424728 | 34.44° C | 51% | 1018.8 hPa | 0 mm | - | - | - |
| 1787424128 | 34.44° C | 51% | 1018.8 hPa | 0 mm | - | - | - |
| 1787423590 | 34.44° C | 50% | 1018.8 hPa | 0 mm | - | - | - |
| 1787422928 | 34.44° C | 50% | 1018.6 hPa | 0 mm | - | - | - |
| 1787422388 | 34.44° C | 50% | 1018.8 hPa | 0 mm | - | - | - |
| 1787421728 | 34.44° C | 50% | 1018.9 hPa | 0 mm | - | - | - |
| 1787421128 | 34.44° C | 50% | 1019 hPa | 0 mm | - | - | - |
| 1787420529 | 34.44° C | 49% | 1019.1 hPa | 0 mm | - | - | - |
* Rain latest hour (hover to see other rain measurements)
** Current wind speed in m/s (hover to see current wind gust speed)